createdAt,value
2019-05-25T00:00:08.866Z,12.90
2019-05-25T00:02:37.321Z,12.20
2019-05-25T00:05:07.667Z,14.43
2019-05-25T00:07:36.267Z,11.27
2019-05-25T00:10:07.221Z,16.07
2019-05-25T00:12:35.730Z,16.17
2019-05-25T00:15:06.684Z,14.27
2019-05-25T00:17:35.150Z,13.43
2019-05-25T00:20:04.667Z,17.30
2019-05-25T00:22:33.197Z,12.40
2019-05-25T00:25:01.674Z,13.27
2019-05-25T00:27:30.127Z,11.90
2019-05-25T00:29:58.593Z,16.97
2019-05-25T00:32:27.187Z,13.10
2019-05-25T00:34:55.720Z,12.07
2019-05-25T00:37:24.229Z,14.07
2019-05-25T00:39:52.682Z,11.43
2019-05-25T00:42:21.214Z,14.67
2019-05-25T00:44:49.706Z,14.80
2019-05-25T00:47:18.161Z,16.77
2019-05-25T00:49:46.613Z,11.63
2019-05-25T00:52:15.228Z,14.17
2019-05-25T00:54:43.765Z,12.57
2019-05-25T00:57:12.321Z,14.20
2019-05-25T00:59:40.791Z,13.03
2019-05-25T01:02:09.314Z,14.03
2019-05-25T01:04:37.943Z,21.83
2019-05-25T01:07:06.414Z,14.23
2019-05-25T01:09:34.934Z,16.40
2019-05-25T01:12:03.415Z,17.57
2019-05-25T01:14:31.933Z,12.63
2019-05-25T01:17:00.397Z,13.87
2019-05-25T01:19:28.872Z,17.33
2019-05-25T01:21:57.361Z,13.27
2019-05-25T01:24:25.814Z,17.73
2019-05-25T01:26:54.292Z,17.07
2019-05-25T01:29:22.866Z,16.23
2019-05-25T01:31:51.382Z,14.03
2019-05-25T01:34:19.860Z,14.87
2019-05-25T01:36:48.390Z,13.17
2019-05-25T01:39:16.857Z,18.17
2019-05-25T01:41:45.411Z,18.17
2019-05-25T01:44:13.943Z,12.47
2019-05-25T01:46:42.508Z,13.97
2019-05-25T01:49:10.964Z,13.57
2019-05-25T01:51:39.422Z,18.37
2019-05-25T01:54:07.918Z,16.97
2019-05-25T01:56:36.379Z,16.77
2019-05-25T01:59:04.910Z,15.50
2019-05-25T02:01:33.405Z,17.10
2019-05-25T02:04:01.939Z,24.33
2019-05-25T02:06:30.402Z,18.27
2019-05-25T02:08:58.943Z,16.10
2019-05-25T02:11:27.465Z,17.67
2019-05-25T02:13:55.988Z,13.53
2019-05-25T02:16:24.439Z,17.87
2019-05-25T02:18:52.934Z,17.33
2019-05-25T02:21:21.407Z,16.90
2019-05-25T02:23:49.944Z,16.37
2019-05-25T02:26:18.432Z,17.00
2019-05-25T02:28:46.896Z,18.10
2019-05-25T02:31:15.443Z,16.40
2019-05-25T02:33:43.904Z,20.90
2019-05-25T02:36:12.366Z,21.53
2019-05-25T02:38:40.830Z,20.23
2019-05-25T02:41:09.291Z,20.50
2019-05-25T02:43:37.835Z,13.73
2019-05-25T02:46:06.381Z,17.03
2019-05-25T02:48:34.917Z,16.93
2019-05-25T02:51:03.481Z,17.10
2019-05-25T02:53:31.943Z,16.33
2019-05-25T02:56:00.480Z,15.47
2019-05-25T02:58:28.974Z,19.93
2019-05-25T03:00:58.076Z,19.07
2019-05-25T03:03:26.610Z,18.83
2019-05-25T03:05:56.708Z,16.27
2019-05-25T03:08:25.443Z,20.33
2019-05-25T03:10:55.223Z,17.03
2019-05-25T03:13:23.840Z,15.30
2019-05-25T03:15:52.312Z,18.17
2019-05-25T03:18:20.841Z,14.83
2019-05-25T03:20:49.309Z,18.47
2019-05-25T03:23:17.766Z,15.50
2019-05-25T03:25:49.666Z,19.53
2019-05-25T03:28:16.442Z,18.27
2019-05-25T03:30:44.898Z,14.20
2019-05-25T03:33:13.374Z,16.37
2019-05-25T03:35:41.949Z,18.97
2019-05-25T03:38:10.420Z,19.20
2019-05-25T03:40:38.951Z,20.23
2019-05-25T03:43:07.431Z,20.20
2019-05-25T03:45:36.043Z,17.80
2019-05-25T03:48:04.728Z,17.47
2019-05-25T03:50:33.293Z,19.77
2019-05-25T03:53:01.815Z,18.13
2019-05-25T03:55:30.343Z,19.10
2019-05-25T03:57:59.468Z,20.23
2019-05-25T04:00:36.598Z,20.57
2019-05-25T04:03:06.307Z,21.67
2019-05-25T04:05:34.902Z,21.10
2019-05-25T04:08:03.378Z,17.77
2019-05-25T04:10:31.944Z,15.80
2019-05-25T04:13:00.406Z,17.13
2019-05-25T04:15:28.879Z,18.57
2019-05-25T04:17:57.352Z,18.50
2019-05-25T04:20:25.882Z,19.87
2019-05-25T04:22:54.350Z,17.87
2019-05-25T04:25:22.811Z,16.43
2019-05-25T04:27:51.326Z,15.73
2019-05-25T04:30:20.200Z,17.13
2019-05-25T04:32:48.648Z,17.53
2019-05-25T04:35:17.177Z,17.67
2019-05-25T04:37:45.646Z,19.53
2019-05-25T04:40:14.177Z,15.80
2019-05-25T04:42:42.642Z,13.33
2019-05-25T04:45:11.715Z,16.47
2019-05-25T04:47:40.190Z,15.20
2019-05-25T04:50:09.335Z,16.03
2019-05-25T04:52:41.129Z,15.30
2019-05-25T04:55:08.725Z,12.67
2019-05-25T04:57:37.246Z,13.30
2019-05-25T05:00:06.461Z,11.00
2019-05-25T05:02:35.006Z,14.07
2019-05-25T05:05:04.671Z,12.20
2019-05-25T05:07:33.485Z,9.43
2019-05-25T05:10:03.337Z,10.90
2019-05-25T05:12:32.313Z,8.43
2019-05-25T05:15:00.839Z,12.13
2019-05-25T05:17:29.306Z,9.17
2019-05-25T05:19:57.763Z,10.23
2019-05-25T05:22:26.233Z,10.60
2019-05-25T05:24:54.773Z,11.53
2019-05-25T05:27:23.235Z,8.57
2019-05-25T05:29:51.699Z,9.60
2019-05-25T05:32:27.636Z,7.87
2019-05-25T05:34:50.794Z,10.50
2019-05-25T05:37:20.090Z,6.57
2019-05-25T05:39:49.607Z,9.60
2019-05-25T05:42:21.406Z,11.10
2019-05-25T05:44:50.002Z,8.33
2019-05-25T05:47:20.039Z,8.30
2019-05-25T05:49:50.240Z,7.00
2019-05-25T05:52:20.307Z,7.77
2019-05-25T05:54:50.971Z,4.50
2019-05-25T05:57:19.432Z,7.83
2019-05-25T05:59:47.934Z,6.17
2019-05-25T06:02:16.505Z,7.43
2019-05-25T06:04:45.031Z,5.00
2019-05-25T06:07:13.521Z,5.33
2019-05-25T06:09:42.055Z,7.53
2019-05-25T06:12:10.577Z,6.13
2019-05-25T06:14:39.132Z,4.47
2019-05-25T06:17:07.659Z,4.77
2019-05-25T06:19:36.109Z,4.93
2019-05-25T06:22:04.567Z,6.97
2019-05-25T06:24:33.027Z,4.23
2019-05-25T06:27:01.496Z,4.33
2019-05-25T06:29:30.029Z,4.33
2019-05-25T06:31:58.605Z,3.93
2019-05-25T06:34:27.127Z,3.93
2019-05-25T06:36:55.576Z,4.13
2019-05-25T06:39:24.061Z,3.87
2019-05-25T06:41:52.523Z,4.00
2019-05-25T06:44:21.042Z,3.30
2019-05-25T06:46:49.521Z,4.70
2019-05-25T06:49:18.038Z,4.27
2019-05-25T06:51:46.509Z,3.30
2019-05-25T06:54:14.971Z,4.83
2019-05-25T06:56:43.466Z,4.20
2019-05-25T06:59:11.923Z,5.20
2019-05-25T07:01:40.447Z,4.63
2019-05-25T07:04:08.894Z,5.03
2019-05-25T07:06:37.359Z,4.87
2019-05-25T07:09:07.278Z,3.93
2019-05-25T07:11:35.741Z,3.50
2019-05-25T07:14:04.344Z,4.83
2019-05-25T07:16:32.882Z,5.57
2019-05-25T07:19:01.328Z,6.67
2019-05-25T07:21:29.954Z,6.53
2019-05-25T07:23:58.478Z,4.63
2019-05-25T07:26:26.931Z,6.20
2019-05-25T07:28:55.397Z,5.73
2019-05-25T07:31:23.910Z,6.27
2019-05-25T07:33:52.366Z,3.27
2019-05-25T07:36:20.821Z,3.83
2019-05-25T07:38:49.347Z,3.70
2019-05-25T07:41:17.799Z,6.47
2019-05-25T07:43:46.274Z,4.10
2019-05-25T07:46:17.064Z,7.17
2019-05-25T07:48:44.943Z,4.67
2019-05-25T07:51:13.392Z,3.73
2019-05-25T07:53:41.857Z,3.33
2019-05-25T07:56:10.379Z,4.07
2019-05-25T07:58:38.843Z,4.83
2019-05-25T08:01:07.308Z,3.93
2019-05-25T08:03:39.167Z,5.67
2019-05-25T08:06:06.041Z,5.30
2019-05-25T08:08:34.507Z,2.80
2019-05-25T08:11:03.029Z,4.20
2019-05-25T08:13:31.587Z,4.10
2019-05-25T08:16:00.047Z,3.43
2019-05-25T08:18:28.501Z,3.43
2019-05-25T08:20:57.063Z,3.90
2019-05-25T08:23:25.585Z,2.70
2019-05-25T08:25:54.120Z,5.97
2019-05-25T08:28:32.115Z,2.47
2019-05-25T08:30:53.096Z,2.33
2019-05-25T08:33:21.839Z,5.57
2019-05-25T08:35:50.298Z,3.50
2019-05-25T08:38:18.779Z,2.67
2019-05-25T08:40:47.245Z,2.97
2019-05-25T08:43:15.776Z,2.67
2019-05-25T08:45:44.236Z,5.93
2019-05-25T08:48:12.766Z,2.97
2019-05-25T08:50:41.315Z,1.93
2019-05-25T08:53:09.784Z,1.60
2019-05-25T08:55:38.326Z,4.50
2019-05-25T08:58:06.862Z,6.13
2019-05-25T09:00:35.319Z,3.67
2019-05-25T09:03:03.988Z,6.73
2019-05-25T09:05:32.457Z,4.67
2019-05-25T09:08:00.918Z,2.30
2019-05-25T09:10:29.375Z,4.50
2019-05-25T09:12:57.826Z,3.93
2019-05-25T09:15:26.277Z,3.57
2019-05-25T09:17:54.786Z,3.17
2019-05-25T09:20:23.330Z,2.30
2019-05-25T09:22:51.781Z,3.20
2019-05-25T09:25:20.411Z,2.77
2019-05-25T09:27:48.863Z,4.10
2019-05-25T09:30:17.651Z,3.80
2019-05-25T09:32:46.111Z,3.77
2019-05-25T09:35:14.803Z,4.37
2019-05-25T09:37:43.326Z,3.07
2019-05-25T09:40:12.438Z,4.00
2019-05-25T09:42:41.026Z,2.27
2019-05-25T09:45:13.390Z,2.57
2019-05-25T09:47:40.116Z,2.97
2019-05-25T09:50:09.280Z,3.73
2019-05-25T09:52:37.845Z,2.80
2019-05-25T09:55:08.499Z,3.43
2019-05-25T09:57:37.020Z,4.83
2019-05-25T10:00:08.578Z,6.03
2019-05-25T10:02:37.035Z,4.40
2019-05-25T10:05:09.072Z,5.40
2019-05-25T10:07:37.527Z,4.70
2019-05-25T10:10:10.202Z,3.33
2019-05-25T10:12:38.699Z,4.00
2019-05-25T10:15:07.684Z,3.03
2019-05-25T10:17:36.160Z,3.10
2019-05-25T10:20:07.653Z,5.37
2019-05-25T10:22:36.115Z,4.10
2019-05-25T10:25:06.885Z,4.40
2019-05-25T10:27:35.428Z,3.53
2019-05-25T10:30:07.300Z,4.37
2019-05-25T10:32:35.761Z,5.50
2019-05-25T10:35:06.852Z,3.50
2019-05-25T10:37:35.419Z,3.23
2019-05-25T10:40:06.104Z,3.97
2019-05-25T10:42:34.555Z,5.57
2019-05-25T10:45:04.302Z,10.53
2019-05-25T10:47:33.045Z,3.97
2019-05-25T10:50:01.508Z,3.00
2019-05-25T10:52:29.974Z,3.47
2019-05-25T10:54:58.528Z,5.37
2019-05-25T10:57:27.054Z,4.30
2019-05-25T10:59:55.510Z,5.13
2019-05-25T11:02:24.027Z,8.90
2019-05-25T11:04:52.535Z,3.37
2019-05-25T11:07:21.042Z,5.13
2019-05-25T11:09:49.512Z,6.43
2019-05-25T11:12:17.984Z,5.00
2019-05-25T11:14:46.439Z,4.67
2019-05-25T11:17:14.901Z,4.37
2019-05-25T11:19:43.450Z,3.17
2019-05-25T11:22:11.897Z,3.27
2019-05-25T11:24:43.230Z,3.60
2019-05-25T11:27:11.703Z,5.10
2019-05-25T11:29:40.154Z,4.50
2019-05-25T11:32:08.718Z,3.23
2019-05-25T11:34:37.266Z,4.00
2019-05-25T11:37:05.718Z,2.60
2019-05-25T11:39:34.185Z,2.57
2019-05-25T11:42:02.720Z,3.97
2019-05-25T11:44:31.256Z,3.33
2019-05-25T11:46:59.710Z,3.13
2019-05-25T11:49:28.155Z,4.17
2019-05-25T11:51:56.641Z,2.47
2019-05-25T11:54:25.099Z,6.37
2019-05-25T11:56:53.997Z,3.13
2019-05-25T11:59:22.532Z,2.40
2019-05-25T12:01:50.996Z,3.60
2019-05-25T12:04:19.482Z,3.05
2019-05-25T12:06:47.936Z,6.15
2019-05-25T12:09:16.387Z,3.98
2019-05-25T12:11:44.893Z,5.40
2019-05-25T12:14:13.423Z,4.15
2019-05-25T12:16:41.871Z,4.55
2019-05-25T12:19:10.431Z,3.70
2019-05-25T12:21:38.904Z,3.60
2019-05-25T12:24:07.424Z,4.87
2019-05-25T12:26:55.255Z,2.98
2019-05-25T12:29:23.710Z,3.98
2019-05-25T12:32:03.438Z,6.40
2019-05-25T12:34:22.442Z,5.78
2019-05-25T12:36:50.915Z,7.95
2019-05-25T12:39:19.375Z,6.20
2019-05-25T12:41:47.832Z,18.65
2019-05-25T12:44:16.412Z,5.00
2019-05-25T12:46:44.867Z,11.80
2019-05-25T12:49:13.408Z,8.63
2019-05-25T12:51:41.987Z,6.42
2019-05-25T12:54:10.504Z,5.08
2019-05-25T12:56:39.043Z,6.85
2019-05-25T12:59:26.998Z,4.72
2019-05-25T13:01:55.461Z,8.03
2019-05-25T13:04:23.982Z,7.50
2019-05-25T13:07:11.814Z,8.53
2019-05-25T13:09:40.285Z,6.65
2019-05-25T13:12:08.729Z,8.55
2019-05-25T13:14:56.536Z,7.72
2019-05-25T13:17:24.994Z,10.82
2019-05-25T13:19:53.477Z,12.43
2019-05-25T13:22:21.948Z,8.53
2019-05-25T13:24:50.430Z,9.13
2019-05-25T13:27:18.958Z,10.40
2019-05-25T13:29:47.418Z,10.98
2019-05-25T13:32:15.886Z,9.73
2019-05-25T13:34:44.868Z,9.70
2019-05-25T13:37:13.490Z,10.85
2019-05-25T13:39:41.963Z,11.95
2019-05-25T13:42:10.438Z,10.68
2019-05-25T13:44:38.920Z,12.25
2019-05-25T13:47:07.449Z,11.10
2019-05-25T13:49:35.911Z,11.48
2019-05-25T13:52:04.520Z,9.40
2019-05-25T13:54:33.054Z,10.82
2019-05-25T13:57:01.582Z,37.15
2019-05-25T13:59:30.120Z,18.25
2019-05-25T14:01:58.655Z,11.18
2019-05-25T14:04:27.111Z,9.78
2019-05-25T14:06:55.595Z,9.35
2019-05-25T14:09:24.050Z,9.55
2019-05-25T14:11:52.578Z,10.08
2019-05-25T14:14:24.225Z,9.13
2019-05-25T14:16:51.230Z,12.37
2019-05-25T14:19:19.714Z,34.45
2019-05-25T14:21:48.184Z,12.53
2019-05-25T14:24:16.725Z,10.15
2019-05-25T14:26:45.187Z,9.43
2019-05-25T14:29:13.675Z,12.23
2019-05-25T14:31:45.834Z,9.63
2019-05-25T14:34:12.440Z,12.30
2019-05-25T14:36:40.907Z,7.63
2019-05-25T14:39:09.470Z,7.70
2019-05-25T14:41:38.008Z,11.17
2019-05-25T14:44:06.535Z,10.87
2019-05-25T14:46:35.018Z,8.17
2019-05-25T14:49:03.744Z,10.70
2019-05-25T14:51:32.211Z,6.10
2019-05-25T14:54:00.743Z,5.93
2019-05-25T14:56:29.207Z,6.23
2019-05-25T14:58:57.657Z,5.10
2019-05-25T15:01:26.124Z,5.83
2019-05-25T15:03:54.681Z,7.50
2019-05-25T15:06:23.146Z,9.03
2019-05-25T15:08:51.607Z,11.13
2019-05-25T15:11:20.082Z,6.40
2019-05-25T15:13:48.564Z,6.60
2019-05-25T15:16:17.087Z,4.50
2019-05-25T15:18:45.549Z,8.40
2019-05-25T15:21:14.089Z,6.20
2019-05-25T15:23:42.624Z,5.23
2019-05-25T15:26:11.158Z,4.67
2019-05-25T15:28:39.718Z,4.87
2019-05-25T15:31:08.169Z,4.60
2019-05-25T15:33:36.615Z,6.70
2019-05-25T15:36:05.230Z,4.77
2019-05-25T15:38:33.694Z,6.63
2019-05-25T15:41:02.145Z,6.93
2019-05-25T15:43:30.639Z,4.00
2019-05-25T15:45:59.082Z,3.67
2019-05-25T15:48:27.543Z,2.87
2019-05-25T15:50:56.111Z,4.67
2019-05-25T15:53:24.677Z,5.33
2019-05-25T15:55:53.203Z,5.23
2019-05-25T15:58:21.764Z,5.90
2019-05-25T16:00:51.453Z,3.73
2019-05-25T16:03:21.140Z,4.83
2019-05-25T16:06:09.021Z,4.00
2019-05-25T16:08:37.952Z,7.73
2019-05-25T16:11:06.425Z,2.93
2019-05-25T16:13:34.950Z,3.17
2019-05-25T16:16:03.410Z,2.97
2019-05-25T16:18:31.858Z,3.77
2019-05-25T16:21:00.396Z,3.73
2019-05-25T16:23:28.875Z,3.93
2019-05-25T16:26:16.664Z,6.20
2019-05-25T16:28:45.241Z,2.97
2019-05-25T16:31:14.747Z,3.70
2019-05-25T16:33:43.198Z,3.43
2019-05-25T16:36:11.686Z,3.27
2019-05-25T16:38:40.146Z,2.00
2019-05-25T16:41:08.608Z,4.80
2019-05-25T16:43:37.167Z,3.03
2019-05-25T16:46:05.615Z,4.10
2019-05-25T16:48:34.088Z,3.60
2019-05-25T16:51:02.582Z,2.97
2019-05-25T16:53:31.075Z,4.40
2019-05-25T16:55:59.543Z,3.30
2019-05-25T16:58:28.083Z,3.40
2019-05-25T17:00:56.540Z,3.60
2019-05-25T17:03:28.740Z,3.20
2019-05-25T17:05:55.507Z,4.07
2019-05-25T17:08:24.041Z,3.70
2019-05-25T17:10:52.572Z,6.70
2019-05-25T17:13:21.213Z,4.00
2019-05-25T17:15:49.666Z,3.27
2019-05-25T17:18:18.383Z,3.77
2019-05-25T17:20:46.944Z,4.33
2019-05-25T17:23:15.461Z,3.67
2019-05-25T17:25:43.994Z,4.37
2019-05-25T17:28:12.555Z,4.43
2019-05-25T17:30:45.623Z,6.60
2019-05-25T17:33:14.941Z,3.73
2019-05-25T17:35:44.328Z,3.87
2019-05-25T17:38:12.923Z,2.70
2019-05-25T17:40:41.386Z,4.40
2019-05-25T17:43:09.924Z,2.73
2019-05-25T17:45:38.388Z,4.33
2019-05-25T17:48:07.202Z,4.33
2019-05-25T17:50:35.764Z,4.90
2019-05-25T17:53:04.746Z,4.70
2019-05-25T17:55:33.277Z,6.87
2019-05-25T17:58:01.757Z,4.07
2019-05-25T18:00:41.576Z,3.67
2019-05-25T18:03:10.616Z,3.70
2019-05-25T18:05:39.354Z,4.40
2019-05-25T18:08:08.555Z,4.97
2019-05-25T18:10:51.326Z,6.80
2019-05-25T18:13:07.585Z,7.07
2019-05-25T18:15:36.175Z,4.27
2019-05-25T18:18:07.314Z,4.03
2019-05-25T18:20:36.345Z,5.57
2019-05-25T18:23:05.474Z,5.27
2019-05-25T18:25:34.314Z,4.90
2019-05-25T18:28:02.990Z,3.80
2019-05-25T18:30:31.877Z,9.87
2019-05-25T18:33:00.460Z,7.80
2019-05-25T18:35:28.944Z,8.97
2019-05-25T18:37:57.480Z,4.43
2019-05-25T18:40:25.938Z,7.17
2019-05-25T18:42:54.407Z,6.90
2019-05-25T18:45:23.503Z,3.80
2019-05-25T18:48:11.521Z,8.07
2019-05-25T18:50:40.220Z,4.40
2019-05-25T18:53:08.669Z,4.23
2019-05-25T18:55:37.135Z,4.70
2019-05-25T18:58:05.662Z,6.17
2019-05-25T19:00:34.204Z,3.70
2019-05-25T19:03:02.768Z,5.57
2019-05-25T19:05:31.302Z,6.27
2019-05-25T19:07:59.830Z,3.70
2019-05-25T19:10:28.422Z,4.47
2019-05-25T19:12:56.890Z,6.27
2019-05-25T19:15:27.282Z,6.23
2019-05-25T19:17:55.730Z,4.20
2019-05-25T19:20:24.367Z,4.00
2019-05-25T19:22:52.858Z,5.53
2019-05-25T19:25:21.447Z,4.30
2019-05-25T19:27:49.995Z,6.23
2019-05-25T19:30:18.835Z,6.07
2019-05-25T19:32:47.300Z,5.33
2019-05-25T19:35:16.093Z,7.13
2019-05-25T19:37:44.632Z,6.13
2019-05-25T19:40:13.722Z,3.77
2019-05-25T19:42:42.283Z,7.00
2019-05-25T19:45:11.104Z,5.70
2019-05-25T19:47:39.658Z,4.87
2019-05-25T19:50:08.819Z,5.50
2019-05-25T19:52:37.351Z,7.43
2019-05-25T19:55:08.006Z,5.80
2019-05-25T19:57:36.724Z,4.53
2019-05-25T20:00:06.613Z,7.83
2019-05-25T20:02:35.162Z,6.63
2019-05-25T20:05:15.818Z,3.37
2019-05-25T20:07:36.908Z,10.40
2019-05-25T20:10:09.035Z,7.03
2019-05-25T20:12:37.618Z,7.43
2019-05-25T20:15:08.280Z,8.57
2019-05-25T20:17:37.048Z,6.23
2019-05-25T20:20:06.223Z,7.60
2019-05-25T20:22:34.757Z,7.10
2019-05-25T20:25:04.915Z,9.00
2019-05-25T20:27:33.542Z,8.17
2019-05-25T20:30:02.007Z,10.47
2019-05-25T20:32:30.498Z,8.87
2019-05-25T20:34:59.334Z,8.73
2019-05-25T20:37:27.792Z,8.80
2019-05-25T20:39:56.255Z,8.83
2019-05-25T20:42:24.790Z,8.10
2019-05-25T20:44:53.285Z,9.37
2019-05-25T20:47:21.742Z,8.10
2019-05-25T20:49:50.264Z,5.97
2019-05-25T20:52:18.755Z,9.80
2019-05-25T20:54:47.409Z,9.77
2019-05-25T20:57:15.876Z,10.40
2019-05-25T20:59:44.422Z,7.90
2019-05-25T21:02:12.959Z,10.67
2019-05-25T21:04:41.509Z,11.40
2019-05-25T21:07:09.948Z,9.50
2019-05-25T21:09:39.327Z,10.27
2019-05-25T21:12:07.787Z,9.53
2019-05-25T21:14:36.254Z,12.23
2019-05-25T21:17:07.670Z,9.47
2019-05-25T21:19:36.539Z,8.00
2019-05-25T21:22:05.087Z,10.60
2019-05-25T21:24:33.547Z,7.33
2019-05-25T21:27:02.123Z,13.90
2019-05-25T21:29:30.653Z,10.90
2019-05-25T21:31:59.112Z,12.03
2019-05-25T21:34:27.652Z,18.57
2019-05-25T21:36:56.109Z,13.33
2019-05-25T21:39:24.686Z,12.00
2019-05-25T21:41:53.149Z,14.17
2019-05-25T21:44:21.670Z,20.27
2019-05-25T21:46:50.153Z,17.00
2019-05-25T21:49:18.601Z,14.67
2019-05-25T21:51:48.068Z,16.07
2019-05-25T21:54:16.592Z,15.77
2019-05-25T21:56:45.062Z,15.20
2019-05-25T21:59:13.586Z,15.13
2019-05-25T22:01:42.106Z,11.23
2019-05-25T22:04:10.644Z,10.93
2019-05-25T22:06:39.243Z,11.83
2019-05-25T22:09:08.197Z,10.63
2019-05-25T22:11:37.199Z,9.63
2019-05-25T22:14:05.726Z,12.97
2019-05-25T22:16:34.197Z,15.53
2019-05-25T22:19:02.740Z,13.83
2019-05-25T22:21:31.341Z,13.10
2019-05-25T22:23:59.825Z,14.23
2019-05-25T22:26:28.316Z,12.30
2019-05-25T22:29:01.473Z,13.13
2019-05-25T22:31:29.935Z,10.90
2019-05-25T22:33:59.389Z,10.53
2019-05-25T22:36:39.634Z,14.57
2019-05-25T22:38:58.446Z,13.10
2019-05-25T22:41:26.905Z,14.53
2019-05-25T22:43:55.428Z,12.73
2019-05-25T22:46:23.899Z,11.43
2019-05-25T22:48:52.400Z,11.87
2019-05-25T22:51:20.967Z,12.43
2019-05-25T22:53:49.562Z,9.57
2019-05-25T22:56:18.086Z,14.07
2019-05-25T22:58:46.762Z,12.73
2019-05-25T23:01:15.303Z,12.80
2019-05-25T23:03:44.404Z,13.30
2019-05-25T23:06:12.927Z,13.50
2019-05-25T23:08:41.488Z,13.50
2019-05-25T23:11:09.955Z,13.37
2019-05-25T23:13:38.413Z,18.87
2019-05-25T23:16:06.967Z,16.93
2019-05-25T23:18:35.423Z,14.60
2019-05-25T23:21:03.886Z,18.00
2019-05-25T23:23:32.414Z,14.37
2019-05-25T23:26:00.871Z,15.30
2019-05-25T23:28:29.329Z,12.03
2019-05-25T23:30:57.813Z,10.60
2019-05-25T23:33:26.324Z,17.20
2019-05-25T23:35:54.900Z,12.87
2019-05-25T23:38:23.439Z,17.77
2019-05-25T23:40:51.900Z,16.10
2019-05-25T23:43:20.357Z,12.60
2019-05-25T23:45:48.808Z,15.20
2019-05-25T23:48:17.306Z,18.03
2019-05-25T23:50:45.762Z,17.00
2019-05-25T23:53:14.290Z,15.70
2019-05-25T23:55:42.826Z,16.80
2019-05-25T23:58:11.372Z,20.10
